Time;durP1;ratioP1;P1;durP2;ratioP2;P2;SDS_P1;SDS_P2;PMS_P1;PMS_P2;Temp;Humidity;BMP_temperature;BMP_pressure;BME280_temperature;BME280_humidity;BME280_pressure;Samples;Min_cycle;Max_cycle;Signal;HPM_P1;HPM_P2
2022/10/02 00:00:00;;;;;;;17.67;6.23;;;11.10;99.90;;;;;;5115842;27;20188;-68
2022/10/02 00:02:38;;;;;;;16.07;5.77;;;11.10;99.90;;;;;;5106602;27;20222;-68
2022/10/02 00:05:22;;;;;;;21.00;6.87;;;11.20;99.90;;;;;;5114220;28;20168;-68
2022/10/02 00:08:10;;;;;;;22.03;6.07;;;11.30;99.90;;;;;;5130994;27;20297;-68
2022/10/02 00:11:01;;;;;;;15.60;5.20;;;11.30;99.90;;;;;;5136354;27;20594;-68
2022/10/02 00:13:33;;;;;;;16.30;5.77;;;11.40;99.90;;;;;;5136366;27;20160;-68
2022/10/02 00:16:02;;;;;;;11.70;5.03;;;11.50;99.90;;;;;;5136334;27;20516;-68
2022/10/02 00:18:32;;;;;;;16.67;5.63;;;11.50;99.90;;;;;;5134837;27;20232;-70
2022/10/02 00:21:21;;;;;;;18.50;6.10;;;11.50;99.90;;;;;;5134617;27;20200;-66
2022/10/02 00:23:58;;;;;;;21.17;6.60;;;11.50;99.90;;;;;;5136104;27;20168;-70
2022/10/02 00:26:33;;;;;;;21.00;5.40;;;11.50;99.90;;;;;;5136515;27;20156;-70
2022/10/02 00:29:08;;;;;;;12.30;5.47;;;11.50;99.90;;;;;;5119439;27;20180;-70
2022/10/02 00:31:40;;;;;;;15.47;5.73;;;11.50;99.90;;;;;;5115177;28;20687;-70
2022/10/02 00:34:43;;;;;;;16.43;5.93;;;11.50;99.90;;;;;;5113819;28;20180;-70
2022/10/02 00:37:35;;;;;;;18.97;6.33;;;11.50;99.90;;;;;;5123713;27;20198;-70
2022/10/02 00:40:35;;;;;;;20.87;7.03;;;11.50;99.90;;;;;;5131502;27;20257;-70
2022/10/02 00:43:25;;;;;;;14.30;6.03;;;11.50;99.90;;;;;;5134314;27;20213;-70
2022/10/02 00:46:12;;;;;;;24.77;5.73;;;11.50;99.90;;;;;;5134303;27;20164;-70
2022/10/02 00:49:06;;;;;;;20.83;6.50;;;11.60;99.90;;;;;;5135813;27;20162;-70
2022/10/02 00:52:01;;;;;;;25.10;6.23;;;11.60;99.90;;;;;;5134351;27;20208;-70
2022/10/02 00:55:04;;;;;;;33.80;7.37;;;11.70;99.90;;;;;;5135335;27;20156;-70
2022/10/02 00:58:00;;;;;;;15.50;6.43;;;11.70;99.90;;;;;;5132703;27;20258;-70
2022/10/02 01:00:26;;;;;;;14.63;6.30;;;11.80;99.90;;;;;;5113475;28;20196;-70
2022/10/02 01:03:38;;;;;;;14.10;5.70;;;11.90;99.90;;;;;;5114452;28;20557;-70
2022/10/02 01:06:05;;;;;;;25.27;6.43;;;11.90;99.90;;;;;;5109756;27;20206;-70
2022/10/02 01:08:31;;;;;;;21.47;6.50;;;12.00;99.90;;;;;;5135562;27;20175;-70
2022/10/02 01:10:58;;;;;;;26.47;6.63;;;12.00;99.90;;;;;;5134984;27;20660;-70
2022/10/02 01:13:24;;;;;;;30.97;7.37;;;12.00;99.90;;;;;;5135460;27;20212;-70
2022/10/02 01:15:55;;;;;;;18.93;7.00;;;12.10;99.90;;;;;;5133766;27;20164;-70
2022/10/02 01:18:21;;;;;;;24.63;7.80;;;12.20;99.90;;;;;;5133727;27;20164;-70
2022/10/02 01:20:51;;;;;;;24.87;8.20;;;12.20;99.90;;;;;;5133534;27;20206;-70
2022/10/02 01:23:49;;;;;;;22.37;7.03;;;12.30;99.90;;;;;;5133352;27;20192;-70
2022/10/02 01:26:15;;;;;;;29.23;8.60;;;12.30;99.90;;;;;;5132555;27;20180;-71
2022/10/02 01:28:41;;;;;;;27.53;8.63;;;12.40;99.90;;;;;;5122284;27;20192;-70
2022/10/02 01:31:09;;;;;;;26.53;7.73;;;12.40;99.90;;;;;;5114120;28;20279;-70
2022/10/02 01:33:39;;;;;;;35.10;8.87;;;12.50;99.90;;;;;;5114157;28;20179;-70
2022/10/02 01:36:06;;;;;;;26.03;9.17;;;12.50;99.90;;;;;;5113848;28;20177;-69
2022/10/02 01:38:31;;;;;;;32.00;8.57;;;12.60;99.90;;;;;;5134540;27;20160;-70
2022/10/02 01:40:57;;;;;;;36.75;10.05;;;12.60;99.90;;;;;;5133173;28;20191;-70
2022/10/02 01:43:38;;;;;;;22.93;8.20;;;12.60;99.90;;;;;;5134986;27;20188;-71
2022/10/02 01:46:25;;;;;;;29.83;9.38;;;12.60;99.90;;;;;;5134532;27;20243;-71
2022/10/02 01:49:05;;;;;;;28.33;9.73;;;12.70;99.90;;;;;;5133157;28;20210;-71
2022/10/02 01:51:43;;;;;;;27.55;9.60;;;12.70;99.90;;;;;;5132883;28;20202;-70
2022/10/02 01:54:23;;;;;;;30.83;10.23;;;12.80;99.90;;;;;;5134278;27;20522;-70
2022/10/02 01:57:20;;;;;;;27.43;10.30;;;13.00;99.90;;;;;;5133274;28;20183;-70
2022/10/02 02:00:16;;;;;;;29.73;11.47;;;13.00;99.90;;;;;;5080922;28;20185;-70
2022/10/02 02:03:14;;;;;;;33.30;11.27;;;13.10;99.90;;;;;;5093576;28;20189;-70
2022/10/02 02:05:51;;;;;;;24.48;9.85;;;13.20;99.90;;;;;;5097788;28;20207;-70
2022/10/02 02:08:20;;;;;;;33.70;11.23;;;13.20;99.90;;;;;;5136829;27;20565;-71
2022/10/02 02:10:48;;;;;;;35.78;11.77;;;13.20;99.90;;;;;;5138435;27;20191;-70
2022/10/02 02:13:44;;;;;;;35.30;12.23;;;13.20;99.90;;;;;;5137289;27;20249;-70
2022/10/02 02:16:15;;;;;;;25.75;10.73;;;13.40;99.90;;;;;;5137337;27;20176;-70
2022/10/02 02:18:48;;;;;;;28.55;11.23;;;13.40;99.90;;;;;;5139037;27;20164;-71
2022/10/02 02:21:21;;;;;;;32.33;10.90;;;13.40;99.90;;;;;;5137124;27;20286;-70
2022/10/02 02:23:47;;;;;;;22.73;11.60;;;13.30;99.90;;;;;;5137589;27;20175;-71
2022/10/02 02:26:17;;;;;;;26.05;11.68;;;13.30;99.90;;;;;;5138726;27;20197;-71
2022/10/02 02:28:49;;;;;;;28.77;11.50;;;13.30;99.90;;;;;;5125532;27;20198;-71
2022/10/02 02:31:19;;;;;;;37.40;11.55;;;13.30;99.90;;;;;;5116346;28;20202;-70
2022/10/02 02:33:55;;;;;;;39.25;12.00;;;13.40;99.90;;;;;;5117566;28;20210;-70
2022/10/02 02:36:25;;;;;;;31.52;12.23;;;13.40;99.90;;;;;;5119491;27;20589;-70
2022/10/02 02:38:56;;;;;;;30.85;12.45;;;13.50;99.90;;;;;;5138694;27;20556;-70
2022/10/02 02:41:29;;;;;;;34.67;11.52;;;13.60;99.90;;;;;;5137621;27;20204;-70
2022/10/02 02:44:03;;;;;;;27.65;12.10;;;13.60;99.90;;;;;;5138480;27;20522;-70
2022/10/02 02:47:02;;;;;;;32.10;12.43;;;13.60;99.90;;;;;;5138003;27;20156;-70
2022/10/02 02:49:36;;;;;;;23.98;10.82;;;13.60;99.90;;;;;;5137826;27;20208;-70
2022/10/02 02:52:06;;;;;;;33.25;10.98;;;13.60;99.90;;;;;;5137770;27;20195;-70
2022/10/02 02:54:40;;;;;;;37.38;11.85;;;13.60;99.90;;;;;;5137734;27;20201;-70
2022/10/02 02:57:09;;;;;;;28.17;11.23;;;13.60;99.90;;;;;;5136422;27;20174;-70
2022/10/02 02:59:36;;;;;;;33.50;13.07;;;13.70;99.90;;;;;;5116311;27;20185;-70
2022/10/02 03:02:01;;;;;;;29.35;11.27;;;13.70;99.90;;;;;;5116978;28;20736;-70
2022/10/02 03:04:27;;;;;;;33.33;11.82;;;13.70;99.90;;;;;;5115892;28;20180;-70
2022/10/02 03:06:59;;;;;;;26.13;11.60;;;13.70;99.90;;;;;;5124878;27;20235;-70
2022/10/02 03:09:28;;;;;;;30.52;11.77;;;13.70;99.90;;;;;;5136172;27;20164;-71
2022/10/02 03:12:34;;;;;;;31.85;12.82;;;13.70;99.90;;;;;;5137354;27;20187;-70
2022/10/02 03:15:24;;;;;;;33.13;11.30;;;13.70;99.90;;;;;;5137012;27;20185;-71
2022/10/02 03:18:26;;;;;;;30.77;11.32;;;13.70;99.90;;;;;;5137278;27;20171;-71
2022/10/02 03:21:10;;;;;;;34.03;11.35;;;13.60;99.90;;;;;;5135837;27;20195;-70
2022/10/02 03:24:05;;;;;;;28.60;11.30;;;13.60;99.90;;;;;;5136036;27;20211;-71
2022/10/02 03:26:51;;;;;;;30.48;10.48;;;13.60;99.90;;;;;;5137679;27;20616;-70
2022/10/02 03:29:27;;;;;;;26.50;10.40;;;13.60;99.90;;;;;;5119670;27;20229;-70
2022/10/02 03:31:54;;;;;;;27.67;10.60;;;13.60;99.90;;;;;;5115897;28;20192;-70
2022/10/02 03:34:20;;;;;;;33.22;10.95;;;13.60;99.90;;;;;;5115885;28;20180;-70
2022/10/02 03:36:46;;;;;;;27.70;10.23;;;13.60;99.90;;;;;;5123656;27;20573;-70
2022/10/02 03:39:13;;;;;;;24.77;9.73;;;13.50;99.90;;;;;;5137467;27;20175;-71
2022/10/02 03:41:38;;;;;;;28.25;10.30;;;13.50;99.90;;;;;;5136881;27;20736;-71
2022/10/02 03:44:04;;;;;;;29.23;10.60;;;13.50;99.90;;;;;;5136909;27;20176;-71
2022/10/02 03:46:30;;;;;;;27.52;10.07;;;13.50;99.90;;;;;;5137032;27;20168;-71
2022/10/02 03:48:55;;;;;;;30.45;10.88;;;13.40;99.90;;;;;;5135667;27;20184;-70
2022/10/02 03:51:22;;;;;;;29.70;10.88;;;13.40;99.90;;;;;;5136799;27;20187;-70
2022/10/02 03:53:49;;;;;;;28.48;10.52;;;13.40;99.90;;;;;;5136636;27;20164;-71
2022/10/02 03:56:43;;;;;;;38.45;10.98;;;13.40;99.90;;;;;;5136963;27;20178;-70
2022/10/02 03:59:14;;;;;;;34.28;11.05;;;13.40;99.90;;;;;;5118767;27;20553;-71
2022/10/02 04:01:49;;;;;;;30.05;10.60;;;13.40;99.90;;;;;;5115890;28;20200;-70
2022/10/02 04:04:20;;;;;;;26.10;10.80;;;13.40;99.90;;;;;;5114674;28;20580;-71
2022/10/02 04:06:52;;;;;;;26.75;9.65;;;13.40;99.90;;;;;;5121202;27;20266;-71
2022/10/02 04:09:22;;;;;;;28.52;9.82;;;13.40;99.90;;;;;;5136600;27;20152;-71
2022/10/02 04:12:25;;;;;;;28.92;10.25;;;13.30;99.90;;;;;;5136113;27;20280;-71
2022/10/02 04:15:18;;;;;;;29.52;9.70;;;13.30;99.90;;;;;;5125214;27;20180;-71
2022/10/02 04:17:54;;;;;;;26.33;10.02;;;13.30;99.90;;;;;;5136491;27;20188;-71
2022/10/02 04:20:25;;;;;;;24.30;10.32;;;13.30;99.90;;;;;;5136152;27;20243;-70
2022/10/02 04:22:54;;;;;;;34.58;10.48;;;13.30;99.90;;;;;;5136431;27;20183;-71
2022/10/02 04:25:23;;;;;;;33.47;10.63;;;13.30;99.90;;;;;;5134579;27;20178;-70
2022/10/02 04:27:57;;;;;;;34.20;11.48;;;13.40;99.90;;;;;;5130636;27;20176;-70
2022/10/02 04:30:23;;;;;;;31.67;10.10;;;13.30;99.90;;;;;;5115445;28;20195;-70
2022/10/02 04:32:50;;;;;;;33.50;9.73;;;13.40;99.90;;;;;;5115775;27;20217;-71
2022/10/02 04:35:16;;;;;;;27.05;9.82;;;13.30;99.90;;;;;;5115230;27;20235;-71
2022/10/02 04:37:45;;;;;;;30.30;11.93;;;13.30;99.90;;;;;;5129800;27;20182;-71
2022/10/02 04:40:35;;;;;;;36.75;10.90;;;13.30;99.90;;;;;;5134289;27;20284;-70
2022/10/02 04:43:16;;;;;;;28.45;10.02;;;13.30;99.90;;;;;;5135420;27;20207;-71
2022/10/02 04:45:42;;;;;;;23.20;9.95;;;13.30;99.90;;;;;;5134377;27;20179;-71
2022/10/02 04:48:24;;;;;;;27.63;10.32;;;13.30;99.90;;;;;;5135775;27;20171;-71
2022/10/02 04:51:03;;;;;;;23.75;10.00;;;13.40;99.90;;;;;;5135998;27;20551;-71
2022/10/02 04:53:40;;;;;;;24.43;9.87;;;13.40;99.90;;;;;;5135308;27;20168;-71
2022/10/02 04:56:05;;;;;;;32.83;10.32;;;13.50;99.90;;;;;;5135461;27;20164;-71
2022/10/02 04:58:48;;;;;;;29.25;8.98;;;13.40;99.90;;;;;;5124205;27;20664;-71
2022/10/02 05:01:26;;;;;;;24.80;9.02;;;13.40;99.90;;;;;;5113340;28;20195;-71
2022/10/02 05:03:58;;;;;;;37.92;9.55;;;13.40;99.90;;;;;;5114989;28;20157;-71
2022/10/02 05:06:51;;;;;;;25.02;8.75;;;13.40;99.90;;;;;;5118306;27;20172;-70
2022/10/02 05:09:22;;;;;;;32.92;8.63;;;13.40;99.90;;;;;;5133924;27;20220;-71
2022/10/02 05:12:00;;;;;;;26.40;8.05;;;13.50;99.90;;;;;;5133732;27;20200;-70
2022/10/02 05:14:37;;;;;;;22.00;7.05;;;13.50;99.90;;;;;;5135212;27;20167;-71
2022/10/02 05:17:16;;;;;;;27.52;7.78;;;13.50;99.90;;;;;;5135253;27;20209;-71
2022/10/02 05:20:02;;;;;;;16.45;6.57;;;13.50;99.90;;;;;;5134983;27;20168;-71
2022/10/02 05:22:54;;;;;;;19.58;7.07;;;13.50;99.90;;;;;;5134725;27;20184;-71
2022/10/02 05:25:35;;;;;;;10.97;5.37;;;13.50;99.90;;;;;;5133623;27;20199;-71
2022/10/02 05:28:39;;;;;;;12.80;5.40;;;13.50;99.90;;;;;;5128444;27;20175;-71
2022/10/02 05:31:08;;;;;;;25.92;6.93;;;13.50;99.90;;;;;;5112946;28;20200;-71
2022/10/02 05:33:49;;;;;;;15.40;5.65;;;13.50;99.90;;;;;;5112880;28;20202;-71
2022/10/02 05:36:58;;;;;;;19.40;5.32;;;13.50;99.90;;;;;;5115462;28;20512;-71
2022/10/02 05:39:32;;;;;;;15.77;5.85;;;13.40;99.90;;;;;;5113441;27;20270;-71
2022/10/02 05:42:00;;;;;;;12.38;5.38;;;13.40;99.90;;;;;;5134394;27;20603;-71
2022/10/02 05:44:36;;;;;;;19.10;5.97;;;13.30;99.90;;;;;;5133347;28;20659;-71
2022/10/02 05:47:44;;;;;;;15.70;5.28;;;13.30;99.90;;;;;;5134389;27;20158;-70
2022/10/02 05:50:24;;;;;;;12.07;5.45;;;13.30;99.90;;;;;;5125942;27;20570;-70
2022/10/02 05:53:07;;;;;;;18.92;5.50;;;13.30;99.90;;;;;;5134435;27;20166;-70
2022/10/02 05:55:50;;;;;;;16.77;5.20;;;13.20;99.90;;;;;;5133293;28;20175;-70
2022/10/02 05:58:55;;;;;;;12.63;5.80;;;13.20;99.90;;;;;;5125993;27;20237;-71
2022/10/02 06:01:32;;;;;;;12.70;4.82;;;13.20;99.90;;;;;;5113258;28;20207;-71
2022/10/02 06:04:15;;;;;;;16.23;5.40;;;13.10;99.90;;;;;;5112647;28;20255;-71
2022/10/02 06:06:50;;;;;;;13.05;4.40;;;13.10;99.90;;;;;;5118546;28;20179;-70
2022/10/02 06:09:19;;;;;;;17.20;4.43;;;13.10;99.90;;;;;;5134681;27;20175;-70
2022/10/02 06:11:49;;;;;;;10.80;4.60;;;13.10;99.90;;;;;;5134413;27;20192;-71
2022/10/02 06:14:26;;;;;;;13.27;4.55;;;13.10;99.90;;;;;;5133076;28;20172;-71
2022/10/02 06:17:07;;;;;;;8.70;4.18;;;13.10;99.90;;;;;;5132987;28;20191;-71
2022/10/02 06:19:43;;;;;;;11.43;4.65;;;13.10;99.90;;;;;;5134259;27;20176;-69
2022/10/02 06:22:15;;;;;;;11.57;4.85;;;13.00;99.90;;;;;;5134308;27;20196;-70
2022/10/02 06:24:50;;;;;;;12.37;5.23;;;13.10;99.90;;;;;;5134540;27;20180;-71
2022/10/02 06:27:39;;;;;;;12.35;4.25;;;13.10;99.90;;;;;;5133986;27;20168;-71
2022/10/02 06:30:09;;;;;;;11.98;4.53;;;13.10;99.90;;;;;;5112546;28;20212;-72
2022/10/02 06:32:53;;;;;;;8.68;4.38;;;13.10;99.90;;;;;;5113592;28;20251;-71
2022/10/02 06:35:35;;;;;;;13.18;4.47;;;13.10;99.90;;;;;;5112218;28;20714;-71
2022/10/02 06:38:13;;;;;;;9.50;4.50;;;13.10;99.90;;;;;;5129661;28;20253;-71
2022/10/02 06:41:10;;;;;;;11.75;4.38;;;13.10;99.90;;;;;;5132710;28;20195;-71
2022/10/02 06:44:06;;;;;;;7.85;4.00;;;13.10;99.90;;;;;;5134362;27;20247;-71
2022/10/02 06:46:53;;;;;;;12.23;4.93;;;13.10;99.90;;;;;;5135145;27;20499;-71
2022/10/02 06:49:25;;;;;;;12.88;4.53;;;13.10;99.90;;;;;;5133445;27;20163;-71
2022/10/02 06:51:58;;;;;;;9.65;4.55;;;13.10;99.90;;;;;;5137472;27;20199;-71
2022/10/02 06:54:42;;;;;;;9.45;4.10;;;13.10;99.90;;;;;;5137825;27;20160;-71
2022/10/02 06:57:10;;;;;;;9.93;5.05;;;13.20;99.90;;;;;;5136117;27;20533;-71
2022/10/02 07:00:10;;;;;;;12.38;4.40;;;13.20;99.90;;;;;;5117105;27;20188;-71
2022/10/02 07:02:39;;;;;;;12.23;4.68;;;13.30;99.90;;;;;;5115840;28;20199;-71
2022/10/02 07:05:26;;;;;;;11.68;5.10;;;13.30;99.90;;;;;;5117191;28;20168;-71
2022/10/02 07:08:04;;;;;;;12.45;5.35;;;13.40;99.90;;;;;;5132874;27;20674;-71
2022/10/02 07:11:12;;;;;;;14.75;5.55;;;13.40;99.90;;;;;;5135947;27;20199;-71
2022/10/02 07:13:47;;;;;;;15.65;5.18;;;13.40;99.90;;;;;;5137905;27;20238;-66
2022/10/02 07:16:26;;;;;;;13.73;5.40;;;13.50;99.90;;;;;;5135829;27;20175;-65
2022/10/02 07:19:12;;;;;;;9.57;4.80;;;13.50;99.90;;;;;;5137227;27;20160;-65
2022/10/02 07:22:19;;;;;;;9.88;5.55;;;13.50;99.90;;;;;;5135481;27;20302;-66
2022/10/02 07:25:32;;;;;;;9.98;5.97;;;13.50;99.90;;;;;;5137342;27;20628;-74
2022/10/02 07:28:14;;;;;;;9.83;6.80;;;13.60;99.90;;;;;;5087623;28;20228;-74
2022/10/02 07:31:19;;;;;;;12.80;6.68;;;13.50;99.90;;;;;;5074162;28;20280;-74
2022/10/02 07:33:54;;;;;;;17.90;6.97;;;13.60;99.90;;;;;;5091497;28;20181;-75
2022/10/02 07:36:22;;;;;;;13.35;6.78;;;13.60;99.90;;;;;;5102731;27;20187;-74
2022/10/02 07:39:10;;;;;;;18.85;7.05;;;13.60;99.90;;;;;;5137060;27;20172;-75
2022/10/02 07:42:05;;;;;;;21.65;8.10;;;13.70;99.90;;;;;;5136853;27;20221;-70
2022/10/02 07:44:48;;;;;;;22.50;7.55;;;13.70;99.90;;;;;;5127728;27;20179;-70
2022/10/02 07:47:17;;;;;;;11.77;7.53;;;13.70;99.90;;;;;;5136769;27;20163;-70
2022/10/02 07:49:48;;;;;;;14.18;7.85;;;13.70;99.90;;;;;;5135444;27;20581;-70
2022/10/02 07:52:15;;;;;;;13.57;8.60;;;13.80;99.90;;;;;;5136965;27;20156;-70
2022/10/02 07:55:06;;;;;;;14.98;7.85;;;13.80;99.90;;;;;;5136547;27;20658;-70
2022/10/02 07:57:38;;;;;;;14.85;8.23;;;13.90;99.90;;;;;;5134323;27;20167;-70
2022/10/02 08:00:12;;;;;;;19.67;9.32;;;13.90;99.90;;;;;;5115201;28;20551;-70
2022/10/02 08:02:41;;;;;;;21.38;8.85;;;13.90;99.90;;;;;;5116613;28;20214;-70
2022/10/02 08:05:17;;;;;;;23.98;9.80;;;13.90;99.90;;;;;;5116191;28;20506;-70
2022/10/02 08:07:45;;;;;;;17.95;8.35;;;14.00;99.90;;;;;;5129405;27;20183;-70
2022/10/02 08:10:15;;;;;;;15.95;8.45;;;14.00;99.90;;;;;;5118041;27;20545;-70
2022/10/02 08:13:03;;;;;;;23.30;9.25;;;14.00;99.90;;;;;;5136377;27;20168;-71
2022/10/02 08:15:34;;;;;;;18.83;9.13;;;14.10;99.90;;;;;;5136102;27;20164;-70
2022/10/02 08:18:35;;;;;;;17.15;8.95;;;14.00;99.90;;;;;;5134812;27;20635;-70
2022/10/02 08:21:04;;;;;;;16.02;8.35;;;14.10;99.90;;;;;;5123834;27;20200;-70
2022/10/02 08:23:39;;;;;;;16.75;8.25;;;14.10;99.90;;;;;;5135619;27;20195;-70
2022/10/02 08:26:27;;;;;;;14.82;8.20;;;14.20;99.90;;;;;;5134609;27;20176;-70
2022/10/02 08:29:05;;;;;;;19.95;8.40;;;14.20;99.90;;;;;;5121746;27;20221;-70
2022/10/02 08:31:31;;;;;;;18.27;8.77;;;14.20;99.90;;;;;;5113929;28;20195;-69
2022/10/02 08:34:25;;;;;;;20.40;8.93;;;14.30;99.90;;;;;;5115326;28;20203;-66
2022/10/02 08:37:32;;;;;;;21.92;10.07;;;14.30;99.90;;;;;;5120243;27;20187;-69
2022/10/02 08:40:06;;;;;;;17.85;9.18;;;14.50;99.90;;;;;;5135780;27;20186;-70
2022/10/02 08:42:35;;;;;;;19.30;8.70;;;14.60;99.90;;;;;;5135334;27;20275;-69
2022/10/02 08:45:22;;;;;;;17.65;9.13;;;14.80;99.90;;;;;;5135420;27;20601;-68
2022/10/02 08:48:06;;;;;;;16.65;8.35;;;15.10;99.90;;;;;;5123921;27;20180;-68
2022/10/02 08:50:44;;;;;;;20.88;8.48;;;15.20;99.90;;;;;;5134111;27;20195;-68
2022/10/02 08:53:24;;;;;;;15.55;7.90;;;15.20;99.90;;;;;;5135344;27;20159;-68
2022/10/02 08:56:09;;;;;;;15.55;8.35;;;15.20;99.90;;;;;;5135308;27;20163;-69
2022/10/02 08:59:04;;;;;;;18.15;8.55;;;15.10;99.90;;;;;;5122342;27;20271;-68
2022/10/02 09:02:04;;;;;;;18.88;8.43;;;15.00;99.90;;;;;;5114535;28;20192;-68
2022/10/02 09:05:00;;;;;;;15.68;7.63;;;15.00;99.90;;;;;;5115023;28;20178;-68
2022/10/02 09:08:07;;;;;;;16.00;8.25;;;15.10;99.90;;;;;;5115198;28;20718;-66
2022/10/02 09:10:35;;;;;;;11.80;7.22;;;15.20;99.90;;;;;;5114990;28;20195;-66
2022/10/02 09:13:25;;;;;;;16.17;7.45;;;15.20;99.90;;;;;;5114381;28;20199;-66
2022/10/02 09:16:14;;;;;;;17.80;8.18;;;15.30;99.90;;;;;;5113616;28;20161;-74
2022/10/02 09:18:42;;;;;;;17.52;7.93;;;15.30;99.90;;;;;;5114608;28;20175;-65
2022/10/02 09:21:38;;;;;;;14.50;7.95;;;15.30;99.90;;;;;;5112960;28;20265;-66
2022/10/02 09:24:32;;;;;;;14.25;8.32;;;15.30;99.90;;;;;;5106310;28;20203;-66
2022/10/02 09:27:35;;;;;;;16.13;8.80;;;15.30;99.90;;;;;;5114306;28;20197;-66
2022/10/02 09:30:19;;;;;;;18.10;9.27;;;15.10;99.90;;;;;;5092174;28;20204;-66
2022/10/02 09:33:22;;;;;;;14.50;10.02;;;15.00;99.90;;;;;;5098901;28;20177;-66
2022/10/02 09:36:12;;;;;;;17.45;9.25;;;15.10;99.90;;;;;;5110999;28;20232;-66
2022/10/02 09:39:04;;;;;;;19.63;9.65;;;15.00;99.90;;;;;;5091932;28;20180;-66
2022/10/02 09:41:46;;;;;;;15.35;9.45;;;15.00;99.90;;;;;;5077091;28;20212;-66
2022/10/02 09:44:57;;;;;;;20.08;10.18;;;15.10;99.90;;;;;;5093175;28;20153;-66
2022/10/02 09:47:35;;;;;;;18.92;9.13;;;15.10;99.90;;;;;;5089105;28;20207;-66
2022/10/02 09:50:20;;;;;;;24.98;10.23;;;15.10;99.90;;;;;;5093396;28;20196;-66
2022/10/02 09:53:23;;;;;;;18.05;9.23;;;15.10;99.90;;;;;;5108586;28;20172;-66
2022/10/02 09:56:09;;;;;;;17.85;8.90;;;15.10;99.90;;;;;;5109525;28;20248;-75
2022/10/02 09:59:11;;;;;;;18.42;9.50;;;15.10;99.90;;;;;;5104656;28;20181;-66
2022/10/02 10:02:04;;;;;;;11.95;8.35;;;15.30;99.90;;;;;;5071375;28;20216;-67
2022/10/02 10:04:57;;;;;;;17.08;8.65;;;15.40;99.90;;;;;;5091960;28;20262;-66
2022/10/02 10:07:50;;;;;;;15.57;8.68;;;15.40;99.90;;;;;;5115425;28;20232;-66
2022/10/02 10:10:28;;;;;;;16.23;8.40;;;15.40;99.90;;;;;;5134867;27;20191;-68
2022/10/02 10:13:14;;;;;;;16.40;8.15;;;15.40;99.90;;;;;;5132938;28;20624;-67
2022/10/02 10:16:00;;;;;;;16.90;9.55;;;15.40;99.90;;;;;;5134426;27;20185;-67
2022/10/02 10:18:46;;;;;;;16.30;9.05;;;15.30;99.90;;;;;;5134515;27;20186;-67
2022/10/02 10:21:49;;;;;;;19.75;9.27;;;15.20;99.90;;;;;;5134852;27;20188;-67
2022/10/02 10:24:39;;;;;;;19.00;10.27;;;15.00;99.90;;;;;;5135017;27;20542;-69
2022/10/02 10:27:42;;;;;;;22.77;10.02;;;14.90;99.90;;;;;;5138192;27;20164;-69
2022/10/02 10:30:20;;;;;;;23.17;10.82;;;14.70;99.90;;;;;;5097110;28;20196;-69
2022/10/02 10:33:08;;;;;;;23.38;11.55;;;14.60;99.90;;;;;;5097758;28;20164;-69
2022/10/02 10:36:01;;;;;;;20.77;11.45;;;14.50;99.90;;;;;;5097361;28;20588;-69
2022/10/02 10:38:32;;;;;;;21.25;11.48;;;14.40;99.90;;;;;;5095712;28;20161;-69
2022/10/02 10:41:04;;;;;;;22.75;11.38;;;14.20;99.90;;;;;;5097607;28;20181;-69
2022/10/02 10:43:58;;;;;;;23.27;12.57;;;14.10;99.90;;;;;;5097444;28;20185;-69
2022/10/02 10:46:32;;;;;;;25.15;13.50;;;14.00;99.90;;;;;;5097578;28;20169;-69
2022/10/02 10:49:17;;;;;;;28.77;14.57;;;14.00;99.90;;;;;;5097010;28;20168;-69
2022/10/02 10:51:58;;;;;;;21.73;14.25;;;13.90;99.90;;;;;;5096905;28;20268;-69
2022/10/02 10:54:43;;;;;;;32.58;15.93;;;13.90;99.90;;;;;;5095757;28;20504;-68
2022/10/02 10:57:40;;;;;;;28.92;15.95;;;14.00;99.90;;;;;;5097552;28;20154;-69
2022/10/02 11:00:26;;;;;;;28.88;15.40;;;14.00;99.90;;;;;;5097738;28;20218;-82
2022/10/02 11:03:07;;;;;;;34.80;15.85;;;14.10;99.90;;;;;;5101208;28;20717;-65
2022/10/02 11:05:51;;;;;;;23.13;15.32;;;14.10;99.90;;;;;;5101462;28;20586;-65
2022/10/02 11:08:44;;;;;;;30.08;16.77;;;14.10;99.90;;;;;;5134699;27;20179;-66
2022/10/02 11:11:16;;;;;;;33.92;17.48;;;14.10;99.90;;;;;;5138094;27;20188;-66
2022/10/02 11:14:06;;;;;;;31.45;16.67;;;14.20;99.90;;;;;;5137391;27;20758;-65
2022/10/02 11:16:57;;;;;;;25.42;15.70;;;14.50;99.90;;;;;;5136159;27;20241;-66
2022/10/02 11:19:32;;;;;;;24.38;15.57;;;14.80;99.90;;;;;;5137274;27;20167;-66
2022/10/02 11:22:27;;;;;;;31.38;13.50;;;14.70;99.90;;;;;;5136982;27;20195;-66
2022/10/02 11:25:30;;;;;;;19.55;12.25;;;14.70;99.90;;;;;;5137658;27;20156;-65
2022/10/02 11:28:04;;;;;;;16.77;9.70;;;15.10;99.90;;;;;;5131074;27;20660;-65
2022/10/02 11:31:16;;;;;;;16.17;8.27;;;15.30;99.90;;;;;;5116703;28;20184;-66
2022/10/02 11:34:03;;;;;;;12.52;6.18;;;15.30;99.90;;;;;;5092898;28;20210;-65
2022/10/02 11:36:56;;;;;;;17.95;7.43;;;15.30;99.90;;;;;;5120370;27;20197;-65
2022/10/02 11:39:51;;;;;;;11.07;6.55;;;15.30;99.90;;;;;;5137419;27;20558;-66
2022/10/02 11:42:27;;;;;;;11.55;6.90;;;15.60;99.90;;;;;;5136616;27;20206;-65
2022/10/02 11:45:14;;;;;;;11.63;6.40;;;15.70;99.90;;;;;;5137117;27;20159;-66
2022/10/02 11:48:11;;;;;;;10.80;6.07;;;15.90;99.90;;;;;;5135467;27;20265;-65
2022/10/02 11:51:14;;;;;;;14.07;6.32;;;16.10;99.90;;;;;;5127609;27;20203;-66
2022/10/02 11:54:24;;;;;;;15.27;5.60;;;16.20;99.90;;;;;;5136487;27;20179;-66
2022/10/02 11:57:08;;;;;;;17.90;8.82;;;16.20;99.90;;;;;;5135464;27;20175;-66
2022/10/02 11:59:49;;;;;;;16.05;5.93;;;16.10;99.90;;;;;;5116756;27;20679;-66
2022/10/02 12:02:31;;;;;;;13.52;6.72;;;15.90;99.90;;;;;;5114528;28;20204;-66
2022/10/02 12:05:14;;;;;;;10.45;5.63;;;15.90;99.90;;;;;;5116078;28;20148;-66
2022/10/02 12:08:09;;;;;;;11.85;5.60;;;16.00;99.90;;;;;;5130177;27;20186;-66
2022/10/02 12:11:20;;;;;;;11.60;5.05;;;16.10;99.90;;;;;;5136390;27;20198;-66
2022/10/02 12:14:06;;;;;;;8.57;4.78;;;16.10;99.90;;;;;;5093601;28;20176;-66
2022/10/02 12:16:47;;;;;;;10.82;4.60;;;16.30;99.90;;;;;;5092731;28;20241;-66
2022/10/02 12:26:57;;;;;;;9.98;4.75;;;16.40;99.90;;;;;;5124171;27;20180;-66
2022/10/02 12:28:57;;;;;;;12.07;4.68;;;16.10;99.90;;;;;;5125281;27;20670;-72
2022/10/02 12:31:49;;;;;;;10.48;4.60;;;16.10;99.90;;;;;;5116722;28;20194;-66
2022/10/02 12:34:21;;;;;;;12.93;4.15;;;16.30;99.90;;;;;;5115712;28;20161;-65
2022/10/02 12:37:25;;;;;;;12.02;4.00;;;16.60;99.90;;;;;;5122387;27;20727;-66
2022/10/02 12:40:12;;;;;;;10.77;4.50;;;16.70;99.90;;;;;;5135708;27;20167;-66
2022/10/02 12:43:04;;;;;;;11.90;4.90;;;16.60;99.90;;;;;;5135538;27;20200;-66
2022/10/02 12:45:51;;;;;;;6.47;3.83;;;16.50;99.90;;;;;;5119411;27;20183;-66
2022/10/02 12:48:23;;;;;;;12.55;4.70;;;16.40;99.90;;;;;;5133668;27;20752;-66
2022/10/02 12:51:07;;;;;;;11.73;4.45;;;16.30;99.90;;;;;;5134416;27;20291;-66
2022/10/02 12:53:55;;;;;;;12.65;4.13;;;16.30;99.90;;;;;;5134788;27;20176;-65
2022/10/02 12:56:41;;;;;;;8.30;4.05;;;16.40;99.90;;;;;;5134932;27;20558;-65
2022/10/02 12:59:35;;;;;;;9.32;4.60;;;16.40;99.90;;;;;;5117809;27;20192;-66
2022/10/02 13:02:19;;;;;;;15.40;4.95;;;16.50;99.90;;;;;;5115055;28;20196;-65
2022/10/02 13:04:50;;;;;;;10.27;4.20;;;16.60;99.90;;;;;;5113787;28;20168;-65
2022/10/02 13:07:25;;;;;;;8.10;3.88;;;16.90;99.90;;;;;;5125569;27;20183;-66
2022/10/02 13:09:50;;;;;;;6.70;3.50;;;17.20;99.90;;;;;;5134805;27;20246;-66
2022/10/02 13:12:35;;;;;;;10.25;3.90;;;17.40;99.90;;;;;;5134372;27;20210;-66
2022/10/02 13:15:16;;;;;;;9.60;3.33;;;17.60;99.90;;;;;;5134223;27;20190;-65
2022/10/02 13:17:57;;;;;;;11.23;4.03;;;17.70;99.90;;;;;;5135576;27;20596;-65
2022/10/02 13:20:52;;;;;;;8.90;3.30;;;17.90;99.90;;;;;;5133691;27;20303;-65
2022/10/02 13:23:45;;;;;;;11.00;3.70;;;17.80;99.90;;;;;;5133716;27;20199;-65
2022/10/02 13:26:18;;;;;;;10.13;3.50;;;17.50;99.90;;;;;;5136118;27;20322;-69
2022/10/02 13:29:03;;;;;;;13.40;3.90;;;17.20;99.90;;;;;;5125838;27;20184;-70
2022/10/02 13:31:44;;;;;;;9.73;3.67;;;17.00;99.90;;;;;;5126725;28;20581;-66
2022/10/02 13:34:27;;;;;;;13.48;4.72;;;16.80;99.90;;;;;;5119445;28;20172;-68
2022/10/02 13:37:11;;;;;;;11.02;3.85;;;16.70;99.90;;;;;;5117475;28;20243;-68
2022/10/02 13:40:11;;;;;;;7.95;3.47;;;16.60;99.90;;;;;;5115606;28;20167;-68
2022/10/02 13:43:00;;;;;;;9.68;4.07;;;16.70;99.90;;;;;;5114411;28;20208;-68
2022/10/02 13:45:48;;;;;;;12.18;4.28;;;16.80;99.90;;;;;;5114367;28;20151;-68
2022/10/02 13:48:54;;;;;;;7.45;3.30;;;16.70;99.90;;;;;;5115044;28;20605;-66
2022/10/02 13:51:37;;;;;;;7.18;3.40;;;16.80;99.90;;;;;;5107994;28;20258;-67
2022/10/02 13:54:19;;;;;;;6.30;3.83;;;16.80;99.90;;;;;;5113862;28;20157;-65
2022/10/02 13:57:12;;;;;;;12.95;4.22;;;17.00;99.90;;;;;;5113872;28;20166;-66